createdAt,value
2022-08-01T00:02:47.597Z,20.17
2022-08-01T00:08:49.766Z,20.19
2022-08-01T00:14:51.840Z,20.21
2022-08-01T00:20:53.933Z,20.15
2022-08-01T00:26:55.920Z,20.14
2022-08-01T00:32:57.946Z,20.13
2022-08-01T00:38:59.911Z,20.18
2022-08-01T00:45:01.916Z,20.16
2022-08-01T00:51:06.393Z,20.18
2022-08-01T00:57:10.120Z,20.18
2022-08-01T01:03:12.817Z,20.18
2022-08-01T01:09:41.106Z,20.14
2022-08-01T01:16:03.260Z,20.12
2022-08-01T01:22:46.744Z,19.99
2022-08-01T01:29:30.137Z,20.02
2022-08-01T01:35:58.991Z,20.14
2022-08-01T01:42:02.726Z,19.98
2022-08-01T01:48:07.207Z,20.02
2022-08-01T01:54:10.816Z,19.84
2022-08-01T02:00:15.508Z,19.84
2022-08-01T02:06:17.730Z,19.76
2022-08-01T02:12:22.678Z,19.43
2022-08-01T02:18:25.005Z,19.21
2022-08-01T02:24:48.068Z,19.24
2022-08-01T02:30:51.362Z,19.23
2022-08-01T02:36:57.162Z,19.05
2022-08-01T02:43:03.069Z,19.11
2022-08-01T02:49:10.064Z,19.12
2022-08-01T02:55:14.989Z,19.07
2022-08-01T03:01:19.334Z,19.14
2022-08-01T03:07:24.962Z,19.13
2022-08-01T03:13:37.712Z,19.20
2022-08-01T03:19:41.839Z,19.12
2022-08-01T03:25:45.631Z,18.97
2022-08-01T03:31:48.895Z,19.11
2022-08-01T03:38:15.310Z,18.93
2022-08-01T03:44:23.936Z,18.90
2022-08-01T03:50:27.894Z,18.78
2022-08-01T03:56:33.009Z,19.02
2022-08-01T04:02:37.331Z,19.10
2022-08-01T04:08:41.168Z,18.90
2022-08-01T04:14:43.151Z,18.90
2022-08-01T04:20:47.093Z,18.91
2022-08-01T04:26:51.562Z,19.02
2022-08-01T04:32:58.572Z,19.04
2022-08-01T04:39:02.373Z,19.05
2022-08-01T04:45:06.336Z,18.95
2022-08-01T04:51:16.597Z,19.07
2022-08-01T04:57:18.569Z,19.24
2022-08-01T05:03:20.636Z,19.33
2022-08-01T05:09:22.608Z,19.24
2022-08-01T05:15:24.777Z,19.33
2022-08-01T05:21:27.349Z,19.36
2022-08-01T05:27:29.342Z,19.45
2022-08-01T05:33:33.166Z,19.41
2022-08-01T05:39:35.300Z,19.58
2022-08-01T05:45:37.888Z,19.78
2022-08-01T05:51:39.877Z,19.83
2022-08-01T05:57:41.832Z,19.92
2022-08-01T06:03:44.067Z,20.14
2022-08-01T06:09:46.004Z,20.48
2022-08-01T06:15:48.857Z,20.53
2022-08-01T06:21:50.820Z,20.70
2022-08-01T06:27:52.755Z,20.59
2022-08-01T06:33:54.769Z,20.58
2022-08-01T06:39:57.079Z,21.08
2022-08-01T06:45:59.032Z,20.86
2022-08-01T06:52:01.122Z,20.62
2022-08-01T06:58:03.361Z,20.95
2022-08-01T07:04:06.341Z,21.47
2022-08-01T07:10:09.684Z,22.04
2022-08-01T07:16:11.681Z,22.28
2022-08-01T07:22:15.058Z,22.13
2022-08-01T07:28:25.625Z,21.57
2022-08-01T07:34:27.648Z,21.09
2022-08-01T07:40:29.690Z,20.89
2022-08-01T07:46:31.895Z,21.01
2022-08-01T07:52:34.359Z,21.52
2022-08-01T07:58:36.501Z,21.71
2022-08-01T08:04:38.503Z,21.93
2022-08-01T08:10:40.586Z,22.19
2022-08-01T08:16:44.186Z,22.65
2022-08-01T08:22:46.189Z,22.31
2022-08-01T08:28:48.268Z,22.33
2022-08-01T08:34:50.287Z,22.43
2022-08-01T08:40:53.365Z,22.39
2022-08-01T08:46:58.735Z,22.45
2022-08-01T08:53:02.260Z,22.44
2022-08-01T08:59:08.921Z,22.36
2022-08-01T09:05:17.450Z,22.62
2022-08-01T09:11:23.028Z,22.48
2022-08-01T09:17:25.338Z,22.78
2022-08-01T09:23:40.719Z,22.73
2022-08-01T09:30:17.116Z,22.77
2022-08-01T09:36:25.140Z,23.07
2022-08-01T09:42:29.214Z,23.13
2022-08-01T09:48:33.624Z,23.23
2022-08-01T09:54:35.615Z,23.09
2022-08-01T10:00:45.391Z,22.68
2022-08-01T10:06:53.741Z,22.98
2022-08-01T10:13:00.622Z,23.29
2022-08-01T10:19:07.180Z,23.33
2022-08-01T10:25:19.063Z,23.64
2022-08-01T10:31:41.211Z,24.57
2022-08-01T10:37:57.522Z,24.22
2022-08-01T10:44:00.326Z,24.64
2022-08-01T10:50:30.820Z,24.76
2022-08-01T10:56:49.207Z,25.01
2022-08-01T11:03:04.475Z,26.91
2022-08-01T11:09:36.050Z,27.08
2022-08-01T11:15:50.044Z,26.68
2022-08-01T11:21:59.248Z,26.58
2022-08-01T11:28:28.645Z,27.77
2022-08-01T11:34:57.319Z,28.63
2022-08-01T11:41:15.486Z,28.43
2022-08-01T11:47:17.980Z,26.50
2022-08-01T11:53:24.053Z,26.05
2022-08-01T11:59:29.029Z,26.14
2022-08-01T12:05:44.874Z,26.41
2022-08-01T12:11:47.582Z,26.72
2022-08-01T12:17:59.914Z,25.82
2022-08-01T12:24:03.677Z,25.38
2022-08-01T12:30:15.437Z,25.52
2022-08-01T12:36:29.811Z,25.80
2022-08-01T12:42:32.840Z,26.67
2022-08-01T12:48:34.974Z,26.99
2022-08-01T12:55:12.246Z,26.06
2022-08-01T13:01:14.678Z,25.75
2022-08-01T13:07:16.927Z,26.69
2022-08-01T13:13:28.146Z,27.11
2022-08-01T13:19:48.094Z,28.07
2022-08-01T13:25:56.509Z,27.45
2022-08-01T13:32:00.101Z,27.08
2022-08-01T13:38:02.044Z,26.89
2022-08-01T13:44:04.159Z,25.97
2022-08-01T13:50:06.632Z,25.56
2022-08-01T13:56:08.645Z,24.98
2022-08-01T14:02:10.770Z,24.42
2022-08-01T14:08:13.050Z,24.32
2022-08-01T14:14:16.581Z,24.12
2022-08-01T14:20:20.668Z,23.82
2022-08-01T14:26:22.729Z,22.88
2022-08-01T14:32:28.540Z,22.31
2022-08-01T14:38:32.472Z,22.48
2022-08-01T14:44:36.067Z,22.72
2022-08-01T14:50:38.276Z,22.27
2022-08-01T14:56:40.313Z,22.16
2022-08-01T15:02:43.166Z,22.15
2022-08-01T15:08:45.673Z,22.05
2022-08-01T15:14:51.381Z,22.37
2022-08-01T15:20:53.357Z,22.53
2022-08-01T15:26:55.405Z,23.34
2022-08-01T15:32:57.371Z,24.15
2022-08-01T15:38:59.332Z,24.47
2022-08-01T15:45:02.032Z,24.91
2022-08-01T15:51:04.115Z,25.00
2022-08-01T15:57:06.208Z,26.58
2022-08-01T16:03:10.165Z,28.29
2022-08-01T16:09:19.108Z,30.20
2022-08-01T16:15:21.663Z,30.21
2022-08-01T16:21:25.032Z,29.18
2022-08-01T16:27:27.647Z,30.44
2022-08-01T16:33:51.534Z,29.48
2022-08-01T16:39:52.934Z,28.19
2022-08-01T16:45:58.330Z,27.92
2022-08-01T16:52:00.389Z,27.46
2022-08-01T16:58:02.911Z,27.42
2022-08-01T17:04:05.117Z,27.04
2022-08-01T17:10:08.878Z,27.45
2022-08-01T17:16:11.571Z,28.05
2022-08-01T17:22:13.741Z,27.96
2022-08-01T17:28:15.840Z,28.67
2022-08-01T17:34:17.869Z,28.52
2022-08-01T17:40:39.622Z,28.52
2022-08-01T17:46:41.824Z,28.10
2022-08-01T17:52:43.931Z,27.81
2022-08-01T17:58:51.836Z,26.30
2022-08-01T18:04:54.434Z,24.96
2022-08-01T18:10:57.646Z,23.85
2022-08-01T18:16:59.601Z,23.28
2022-08-01T18:23:01.583Z,23.38
2022-08-01T18:29:03.592Z,23.05
2022-08-01T18:35:14.026Z,22.49
2022-08-01T18:41:16.401Z,22.65
2022-08-01T18:47:18.733Z,22.27
2022-08-01T18:53:22.283Z,21.74
2022-08-01T18:59:24.240Z,21.39
2022-08-01T19:05:26.210Z,21.10
2022-08-01T19:11:28.248Z,20.61
2022-08-01T19:17:30.340Z,20.49
2022-08-01T19:23:54.514Z,20.21
2022-08-01T19:30:01.120Z,20.02
2022-08-01T19:36:03.761Z,19.83
2022-08-01T19:42:06.235Z,19.67
2022-08-01T19:48:08.409Z,19.70
2022-08-01T19:54:12.433Z,19.43
2022-08-01T20:00:27.698Z,19.11
2022-08-01T20:06:31.221Z,19.04
2022-08-01T20:12:34.552Z,18.63
2022-08-01T20:18:36.559Z,18.46
2022-08-01T20:24:43.436Z,18.25
2022-08-01T20:30:46.244Z,18.19
2022-08-01T20:36:56.642Z,18.05
2022-08-01T20:42:59.707Z,17.78
2022-08-01T20:49:01.840Z,17.73
2022-08-01T20:55:05.406Z,17.65
2022-08-01T21:01:09.361Z,17.59
2022-08-01T21:07:28.001Z,17.42
2022-08-01T21:13:45.671Z,17.42
2022-08-01T21:19:54.895Z,17.46
2022-08-01T21:26:00.178Z,17.32
2022-08-01T21:32:14.499Z,17.33
2022-08-01T21:38:18.171Z,17.38
2022-08-01T21:44:28.969Z,17.41
2022-08-01T21:50:54.766Z,17.40
2022-08-01T21:57:17.280Z,17.47
2022-08-01T22:03:35.903Z,17.39
2022-08-01T22:09:43.408Z,17.29
2022-08-01T22:15:45.507Z,17.09
2022-08-01T22:21:48.406Z,17.03
2022-08-01T22:28:05.487Z,16.91
2022-08-01T22:34:14.102Z,16.81
2022-08-01T22:40:16.158Z,16.70
2022-08-01T22:46:50.684Z,16.59
2022-08-01T22:53:13.511Z,16.58
2022-08-01T22:59:26.703Z,16.48
2022-08-01T23:06:07.107Z,16.25
2022-08-01T23:12:10.759Z,16.15
2022-08-01T23:18:13.973Z,16.10
2022-08-01T23:24:16.501Z,15.89
2022-08-01T23:30:18.590Z,15.88
2022-08-01T23:36:20.558Z,15.63
2022-08-01T23:42:22.622Z,15.45
2022-08-01T23:48:24.609Z,15.31
2022-08-01T23:54:27.621Z,15.32
